Time;durP1;ratioP1;P1;durP2;ratioP2;P2;SDS_P1;SDS_P2;PMS_P1;PMS_P2;Temp;Humidity;BMP_temperature;BMP_pressure;BME280_temperature;BME280_humidity;BME280_pressure;Samples;Min_cycle;Max_cycle;Signal;HPM_P1;HPM_P2
2022/11/05 00:16:53;;;;;;;20.30;14.27;;;;;;;;;;10287681;28;20068;-62
2022/11/05 00:27:09;;;;;;;19.20;13.88;;;;;;;;;;10293932;28;20068;-62
2022/11/05 00:32:07;;;;;;;19.40;12.60;;;;;;;;;;10289518;28;20045;-62
2022/11/05 00:37:07;;;;;;;18.50;13.75;;;;;;;;;;10291918;28;20068;-62
2022/11/05 00:57:52;;;;;;;22.92;13.98;;;;;;;;;;10289118;28;19921;-62
2022/11/05 01:02:51;;;;;;;16.27;13.27;;;;;;;;;;10277728;28;20041;-63
2022/11/05 01:07:51;;;;;;;15.27;12.95;;;;;;;;;;10276305;28;20045;-62
2022/11/05 01:12:49;;;;;;;16.85;13.60;;;;;;;;;;10277792;28;20080;-61
2022/11/05 01:17:50;;;;;;;18.77;13.45;;;;;;;;;;10282710;28;20545;-61
2022/11/05 01:22:48;;;;;;;18.70;14.23;;;;;;;;;;10288384;28;20049;-63
2022/11/05 01:27:46;;;;;;;23.83;13.95;;;;;;;;;;10299710;28;20052;-62
2022/11/05 01:32:44;;;;;;;19.63;14.40;;;;;;;;;;10281947;28;20087;-62
2022/11/05 01:37:44;;;;;;;22.20;14.30;;;;;;;;;;10277803;28;20076;-62
2022/11/05 01:42:43;;;;;;;19.77;14.23;;;;;;;;;;10284241;28;20120;-62
2022/11/05 01:47:45;;;;;;;19.60;16.45;;;;;;;;;;10295665;28;20513;-62
2022/11/05 01:52:46;;;;;;;17.15;13.02;;;;;;;;;;10282050;28;20091;-62
2022/11/05 01:57:44;;;;;;;16.50;13.82;;;;;;;;;;10289329;28;20053;-62
2022/11/05 02:02:43;;;;;;;22.38;14.88;;;;;;;;;;10277936;28;20080;-62
2022/11/05 02:07:42;;;;;;;18.95;15.43;;;;;;;;;;10284984;28;20856;-61
2022/11/05 02:12:44;;;;;;;17.90;15.18;;;;;;;;;;10280336;28;20060;-61
2022/11/05 02:17:50;;;;;;;20.15;13.52;;;;;;;;;;10276158;28;20462;-62
2022/11/05 02:23:07;;;;;;;16.00;14.05;;;;;;;;;;10281792;28;20072;-61
2022/11/05 02:28:15;;;;;;;21.05;16.25;;;;;;;;;;10282318;28;20075;-62
2022/11/05 02:33:23;;;;;;;20.00;15.18;;;;;;;;;;10282838;28;20590;-61
2022/11/05 02:38:26;;;;;;;26.55;15.50;;;;;;;;;;10292475;28;20494;-61
2022/11/05 02:43:30;;;;;;;15.87;13.30;;;;;;;;;;10275538;28;20041;-62
2022/11/05 02:48:36;;;;;;;18.53;13.83;;;;;;;;;;10283445;28;20055;-61
2022/11/05 02:53:38;;;;;;;16.50;13.95;;;;;;;;;;10283794;28;20084;-61
2022/11/05 02:58:37;;;;;;;19.13;14.98;;;;;;;;;;10293003;28;20084;-61
2022/11/05 03:03:37;;;;;;;21.50;14.63;;;;;;;;;;10275193;28;20048;-62
2022/11/05 03:08:43;;;;;;;18.20;13.75;;;;;;;;;;10288423;28;20088;-62
2022/11/05 03:13:47;;;;;;;24.20;15.82;;;;;;;;;;10273441;28;20080;-62
2022/11/05 03:18:51;;;;;;;19.15;16.15;;;;;;;;;;10273375;28;20430;-61
2022/11/05 03:23:51;;;;;;;20.90;15.90;;;;;;;;;;10283277;28;20068;-62
2022/11/05 03:28:52;;;;;;;29.13;25.13;;;;;;;;;;10278117;28;20057;-62
2022/11/05 03:33:53;;;;;;;28.90;23.58;;;;;;;;;;10289549;28;20068;-61
2022/11/05 03:38:52;;;;;;;28.02;21.25;;;;;;;;;;10288449;28;20047;-61
2022/11/05 03:43:54;;;;;;;28.80;21.27;;;;;;;;;;10299797;28;20502;-61
2022/11/05 03:48:55;;;;;;;21.27;17.63;;;;;;;;;;10279999;28;20102;-61
2022/11/05 03:53:56;;;;;;;21.95;16.23;;;;;;;;;;10291748;28;20049;-61
2022/11/05 03:58:55;;;;;;;19.60;15.13;;;;;;;;;;10279069;28;20041;-62
2022/11/05 04:03:57;;;;;;;19.73;15.63;;;;;;;;;;10279952;28;20072;-62
2022/11/05 04:14:11;;;;;;;18.40;14.52;;;;;;;;;;10282031;28;20533;-61
2022/11/05 04:19:11;;;;;;;23.70;16.13;;;;;;;;;;10278648;28;20483;-62
2022/11/05 04:24:08;;;;;;;22.40;17.63;;;;;;;;;;10278914;28;20064;-62
2022/11/05 04:34:24;;;;;;;24.52;16.63;;;;;;;;;;10292699;28;20073;-62
2022/11/05 04:39:22;;;;;;;20.95;16.63;;;;;;;;;;10286870;28;20080;-62
2022/11/05 04:44:20;;;;;;;22.38;15.77;;;;;;;;;;10300931;28;20037;-62
2022/11/05 04:49:18;;;;;;;19.35;14.10;;;;;;;;;;10280115;28;20509;-62
2022/11/05 04:54:18;;;;;;;21.52;15.50;;;;;;;;;;10286978;28;20073;-61
2022/11/05 04:59:16;;;;;;;29.00;17.95;;;;;;;;;;10285781;28;20048;-60
2022/11/05 05:04:14;;;;;;;27.50;20.63;;;;;;;;;;10287276;28;20051;-62
2022/11/05 05:09:13;;;;;;;52.60;24.45;;;;;;;;;;10293303;28;20053;-62
2022/11/05 05:14:12;;;;;;;26.23;19.30;;;;;;;;;;10285556;28;20075;-62
2022/11/05 05:19:11;;;;;;;22.63;17.38;;;;;;;;;;10283780;28;20069;-61
2022/11/05 05:24:09;;;;;;;23.80;17.52;;;;;;;;;;10284050;28;20072;-61
2022/11/05 05:29:08;;;;;;;31.33;19.85;;;;;;;;;;10289499;28;20406;-62
2022/11/05 05:34:10;;;;;;;22.67;18.10;;;;;;;;;;10292222;28;20088;-63
2022/11/05 05:39:10;;;;;;;28.60;18.80;;;;;;;;;;10276682;28;20068;-62
2022/11/05 05:44:08;;;;;;;32.28;21.73;;;;;;;;;;10288835;28;20522;-62
2022/11/05 05:49:10;;;;;;;31.75;20.75;;;;;;;;;;10290810;28;20077;-61
2022/11/05 05:54:10;;;;;;;24.13;19.17;;;;;;;;;;10274550;28;20554;-61
2022/11/05 05:59:08;;;;;;;32.85;19.13;;;;;;;;;;10289409;28;20045;-62
2022/11/05 06:04:09;;;;;;;26.23;18.50;;;;;;;;;;10275350;28;20057;-62
2022/11/05 06:09:07;;;;;;;35.92;23.00;;;;;;;;;;10275516;28;20058;-62
2022/11/05 06:14:05;;;;;;;47.33;31.67;;;;;;;;;;10287393;28;20083;-61
2022/11/05 06:19:03;;;;;;;46.33;32.13;;;;;;;;;;10275352;28;20084;-61
2022/11/05 06:24:03;;;;;;;35.65;23.80;;;;;;;;;;10273680;28;20083;-61
2022/11/05 06:29:01;;;;;;;31.08;23.25;;;;;;;;;;10275484;28;20041;-61
2022/11/05 06:34:00;;;;;;;36.05;25.50;;;;;;;;;;10274674;28;20410;-62
2022/11/05 06:38:58;;;;;;;27.77;20.33;;;;;;;;;;10282025;28;20056;-62
2022/11/05 06:43:57;;;;;;;35.70;24.95;;;;;;;;;;10280979;28;20075;-62
2022/11/05 06:48:56;;;;;;;38.45;27.58;;;;;;;;;;10283250;28;20068;-61
2022/11/05 06:53:54;;;;;;;38.53;26.27;;;;;;;;;;10280701;28;20072;-61
2022/11/05 06:58:53;;;;;;;44.97;24.13;;;;;;;;;;10279208;28;20426;-62
2022/11/05 07:03:53;;;;;;;32.53;21.48;;;;;;;;;;10284660;28;20076;-63
2022/11/05 07:08:51;;;;;;;34.88;24.25;;;;;;;;;;10285016;28;20084;-62
2022/11/05 07:13:49;;;;;;;34.10;21.20;;;;;;;;;;10289154;28;20041;-61
2022/11/05 07:18:48;;;;;;;33.08;22.60;;;;;;;;;;10289795;28;20075;-61
2022/11/05 07:23:47;;;;;;;31.13;22.38;;;;;;;;;;10289674;28;20044;-61
2022/11/05 07:28:46;;;;;;;29.38;21.35;;;;;;;;;;10284626;28;20084;-61
2022/11/05 07:33:44;;;;;;;26.65;21.83;;;;;;;;;;10290684;28;20044;-61
2022/11/05 07:38:42;;;;;;;31.80;21.38;;;;;;;;;;10287909;28;20075;-61
2022/11/05 07:43:42;;;;;;;30.30;21.88;;;;;;;;;;10300858;28;20076;-61
2022/11/05 07:48:41;;;;;;;30.02;22.65;;;;;;;;;;10294798;28;20040;-62
2022/11/05 07:53:39;;;;;;;29.63;23.63;;;;;;;;;;10295235;28;20056;-62
2022/11/05 07:58:43;;;;;;;44.67;25.45;;;;;;;;;;10280284;28;20155;-62
2022/11/05 08:03:41;;;;;;;33.03;26.15;;;;;;;;;;10285812;28;20044;-62
2022/11/05 08:08:40;;;;;;;34.42;27.65;;;;;;;;;;10281738;28;20066;-62
2022/11/05 08:13:39;;;;;;;28.63;22.17;;;;;;;;;;10285600;28;20049;-61
2022/11/05 08:18:39;;;;;;;31.38;21.35;;;;;;;;;;10280520;28;20528;-63
2022/11/05 08:23:38;;;;;;;34.78;21.95;;;;;;;;;;10290051;28;20072;-62
2022/11/05 08:28:36;;;;;;;30.65;19.83;;;;;;;;;;10277852;28;20076;-61
2022/11/05 08:33:34;;;;;;;26.48;21.30;;;;;;;;;;10282004;28;20138;-62
2022/11/05 08:38:34;;;;;;;29.83;20.23;;;;;;;;;;10290359;28;20589;-62
2022/11/05 08:43:32;;;;;;;26.60;19.58;;;;;;;;;;10285891;28;20348;-61
2022/11/05 08:48:31;;;;;;;34.90;21.67;;;;;;;;;;10288618;28;20072;-63
2022/11/05 08:53:30;;;;;;;34.63;21.52;;;;;;;;;;10284344;28;20077;-62
2022/11/05 08:58:30;;;;;;;26.77;18.38;;;;;;;;;;10285888;28;20103;-63
2022/11/05 09:03:28;;;;;;;25.20;19.13;;;;;;;;;;10279604;28;20041;-61
2022/11/05 09:08:26;;;;;;;24.33;19.60;;;;;;;;;;10284115;28;20065;-63
2022/11/05 09:13:25;;;;;;;26.63;17.63;;;;;;;;;;10281962;28;20076;-63
2022/11/05 09:18:26;;;;;;;26.40;20.15;;;;;;;;;;10274150;28;20518;-62
2022/11/05 09:23:25;;;;;;;26.60;20.25;;;;;;;;;;10312461;28;20084;-62
2022/11/05 09:28:24;;;;;;;27.85;19.40;;;;;;;;;;10287861;28;20084;-62
2022/11/05 09:33:24;;;;;;;23.08;17.33;;;;;;;;;;10285574;28;20569;-62
2022/11/05 09:38:23;;;;;;;26.10;19.17;;;;;;;;;;10286423;28;20518;-62
2022/11/05 09:43:25;;;;;;;27.48;20.33;;;;;;;;;;10294883;28;20462;-62
2022/11/05 09:48:31;;;;;;;24.85;18.80;;;;;;;;;;10274554;28;20068;-60
2022/11/05 09:53:32;;;;;;;31.23;17.63;;;;;;;;;;10281698;28;20368;-63
2022/11/05 09:58:36;;;;;;;24.83;19.67;;;;;;;;;;10289568;28;20510;-62
2022/11/05 10:03:36;;;;;;;24.87;18.97;;;;;;;;;;10285137;28;20084;-62
2022/11/05 10:08:40;;;;;;;31.02;19.38;;;;;;;;;;10281190;28;20051;-62
2022/11/05 10:13:40;;;;;;;26.70;19.98;;;;;;;;;;10275162;28;20487;-63
2022/11/05 10:18:41;;;;;;;26.63;19.55;;;;;;;;;;10277542;28;20078;-62
2022/11/05 10:23:41;;;;;;;27.13;18.17;;;;;;;;;;10280136;28;20037;-62
2022/11/05 10:28:39;;;;;;;22.90;19.55;;;;;;;;;;10278824;28;20084;-62
2022/11/05 10:33:39;;;;;;;24.52;17.48;;;;;;;;;;10277230;28;20075;-61
2022/11/05 10:38:38;;;;;;;28.95;20.30;;;;;;;;;;10295264;28;20490;-62
2022/11/05 10:43:42;;;;;;;28.02;19.90;;;;;;;;;;10278666;28;20075;-62
2022/11/05 10:48:48;;;;;;;27.35;19.27;;;;;;;;;;10285084;28;20087;-61
2022/11/05 10:53:51;;;;;;;26.83;19.83;;;;;;;;;;10289347;28;20505;-63
2022/11/05 10:58:58;;;;;;;24.88;18.95;;;;;;;;;;10277204;28;20068;-61
2022/11/05 11:04:20;;;;;;;26.52;18.77;;;;;;;;;;10282650;28;20521;-62
2022/11/05 11:09:23;;;;;;;26.27;21.27;;;;;;;;;;10264615;28;20089;-63
2022/11/05 11:14:23;;;;;;;30.20;21.95;;;;;;;;;;10273481;28;20540;-63
2022/11/05 11:19:24;;;;;;;33.63;22.98;;;;;;;;;;10275428;28;20071;-63
2022/11/05 11:24:22;;;;;;;27.67;20.25;;;;;;;;;;10288332;28;20040;-62
2022/11/05 11:29:24;;;;;;;33.13;22.77;;;;;;;;;;10274791;28;20060;-62
2022/11/05 11:34:27;;;;;;;30.88;22.40;;;;;;;;;;10271170;28;20080;-61
2022/11/05 11:39:27;;;;;;;27.55;23.00;;;;;;;;;;10284605;28;20474;-62
2022/11/05 11:44:28;;;;;;;24.40;21.27;;;;;;;;;;10286731;28;20510;-61
2022/11/05 11:49:32;;;;;;;28.98;22.20;;;;;;;;;;10274211;28;20061;-62
2022/11/05 11:54:31;;;;;;;27.50;21.30;;;;;;;;;;10289627;28;20060;-62
2022/11/05 11:59:30;;;;;;;37.83;21.73;;;;;;;;;;10297340;28;20073;-64
2022/11/05 12:04:58;;;;;;;26.52;21.27;;;;;;;;;;10282466;28;20084;-66
2022/11/05 12:10:10;;;;;;;32.17;24.33;;;;;;;;;;10296767;28;20073;-65
2022/11/05 12:15:20;;;;;;;34.63;24.08;;;;;;;;;;10284300;28;20099;-63
2022/11/05 12:20:25;;;;;;;30.10;21.42;;;;;;;;;;10286478;28;20076;-64
2022/11/05 12:25:26;;;;;;;30.70;21.80;;;;;;;;;;10278090;28;20069;-64
2022/11/05 12:30:25;;;;;;;28.30;21.17;;;;;;;;;;10280632;28;20491;-65
2022/11/05 12:35:30;;;;;;;33.45;22.27;;;;;;;;;;10283688;28;20041;-66
2022/11/05 12:40:41;;;;;;;33.50;23.15;;;;;;;;;;10278152;28;20072;-64
2022/11/05 12:45:44;;;;;;;26.30;20.88;;;;;;;;;;10289789;28;20060;-65
2022/11/05 12:50:45;;;;;;;30.23;22.30;;;;;;;;;;10282426;28;20071;-65
2022/11/05 12:55:45;;;;;;;30.48;20.85;;;;;;;;;;10284198;28;20072;-65
2022/11/05 13:00:47;;;;;;;26.23;21.15;;;;;;;;;;10278396;28;20079;-64
2022/11/05 13:05:48;;;;;;;30.52;22.25;;;;;;;;;;10284036;28;20068;-65
2022/11/05 13:10:50;;;;;;;30.65;20.75;;;;;;;;;;10288231;28;20071;-65
2022/11/05 13:15:50;;;;;;;30.30;21.90;;;;;;;;;;10286917;28;20087;-66
2022/11/05 13:20:52;;;;;;;31.35;21.55;;;;;;;;;;10281756;28;20470;-66
2022/11/05 13:25:53;;;;;;;29.95;21.92;;;;;;;;;;10290613;28;20076;-65
2022/11/05 13:30:52;;;;;;;33.40;22.30;;;;;;;;;;10294959;28;20075;-65
2022/11/05 13:38:57;;;;;;;29.95;22.35;;;;;;;;;;10283337;28;20064;-66
2022/11/05 13:41:20;;;;;;;31.35;21.77;;;;;;;;;;10300466;28;20457;-66
2022/11/05 13:46:33;;;;;;;29.77;21.15;;;;;;;;;;10289613;28;20064;-65
2022/11/05 13:51:41;;;;;;;28.95;21.08;;;;;;;;;;10283393;28;20705;-66
2022/11/05 13:56:53;;;;;;;32.80;21.92;;;;;;;;;;10276839;28;20045;-65
2022/11/05 14:01:54;;;;;;;28.58;21.17;;;;;;;;;;10278722;28;20071;-66
2022/11/05 14:07:04;;;;;;;27.35;18.52;;;;;;;;;;10286087;28;20092;-66
2022/11/05 14:12:03;;;;;;;27.80;20.65;;;;;;;;;;10289013;28;20032;-67
2022/11/05 14:17:15;;;;;;;28.50;18.83;;;;;;;;;;10286141;28;20076;-66
2022/11/05 14:22:36;;;;;;;25.58;19.75;;;;;;;;;;10287240;28;20068;-66
2022/11/05 14:27:42;;;;;;;28.60;17.85;;;;;;;;;;10281299;28;20098;-65
2022/11/05 14:32:48;;;;;;;22.60;18.25;;;;;;;;;;10281737;28;20045;-65
2022/11/05 14:37:52;;;;;;;25.92;18.42;;;;;;;;;;10274063;28;20085;-65
2022/11/05 14:42:51;;;;;;;23.02;18.98;;;;;;;;;;10280970;28;20061;-66
2022/11/05 14:47:53;;;;;;;28.10;18.90;;;;;;;;;;10282655;28;20467;-65
2022/11/05 14:52:54;;;;;;;27.60;20.35;;;;;;;;;;10274187;28;20088;-66
2022/11/05 14:58:04;;;;;;;27.45;17.65;;;;;;;;;;10292151;28;20076;-65
2022/11/05 15:03:04;;;;;;;32.53;25.80;;;;;;;;;;10301911;28;20068;-65
2022/11/05 15:08:17;;;;;;;27.33;21.52;;;;;;;;;;10290996;28;20101;-66
2022/11/05 15:13:25;;;;;;;25.63;21.67;;;;;;;;;;10279872;28;20060;-65
2022/11/05 15:18:29;;;;;;;30.45;20.90;;;;;;;;;;10279064;28;20450;-67
2022/11/05 15:23:34;;;;;;;28.57;22.70;;;;;;;;;;10288506;28;20095;-66
2022/11/05 15:28:35;;;;;;;27.92;19.63;;;;;;;;;;10302554;28;20092;-64
2022/11/05 15:33:34;;;;;;;35.15;23.52;;;;;;;;;;10301040;28;20110;-65
2022/11/05 15:38:33;;;;;;;29.30;21.50;;;;;;;;;;10287541;28;20099;-66
2022/11/05 15:43:32;;;;;;;27.42;21.92;;;;;;;;;;10297752;28;20076;-67
2022/11/05 15:48:33;;;;;;;34.83;26.38;;;;;;;;;;10294666;28;20477;-69
2022/11/05 15:53:33;;;;;;;28.20;22.70;;;;;;;;;;10278845;28;20080;-64
2022/11/05 15:58:53;;;;;;;33.35;22.90;;;;;;;;;;10296764;28;20106;-66
2022/11/05 16:03:54;;;;;;;31.77;21.60;;;;;;;;;;10283114;28;20064;-66
2022/11/05 16:08:53;;;;;;;25.90;19.95;;;;;;;;;;10281643;28;20064;-66
2022/11/05 16:13:51;;;;;;;30.05;20.35;;;;;;;;;;10279246;28;20080;-67
2022/11/05 16:18:50;;;;;;;31.08;21.35;;;;;;;;;;10284269;28;20080;-65
2022/11/05 16:23:54;;;;;;;29.75;21.85;;;;;;;;;;10297699;28;20068;-66
2022/11/05 16:28:52;;;;;;;30.83;21.88;;;;;;;;;;10278160;28;20060;-66
2022/11/05 16:33:51;;;;;;;30.92;22.42;;;;;;;;;;10291835;28;20045;-65
2022/11/05 16:38:49;;;;;;;33.30;22.85;;;;;;;;;;10278288;28;20076;-65
2022/11/05 16:43:52;;;;;;;44.83;32.35;;;;;;;;;;10288891;28;20052;-66
2022/11/05 16:48:50;;;;;;;36.03;21.60;;;;;;;;;;10296917;28;20076;-64
2022/11/05 16:53:49;;;;;;;32.80;22.65;;;;;;;;;;10278028;28;20048;-66
2022/11/05 16:58:48;;;;;;;37.35;24.20;;;;;;;;;;10292196;28;20080;-65
2022/11/05 17:03:49;;;;;;;32.42;24.17;;;;;;;;;;10278151;28;20045;-66
2022/11/05 17:08:48;;;;;;;29.70;21.90;;;;;;;;;;10277096;28;20056;-65
2022/11/05 17:13:47;;;;;;;28.23;22.00;;;;;;;;;;10286302;28;20056;-65
2022/11/05 17:18:45;;;;;;;33.22;22.98;;;;;;;;;;10295626;28;20080;-66
2022/11/05 17:23:44;;;;;;;35.30;25.02;;;;;;;;;;10277344;28;20048;-65
2022/11/05 17:28:43;;;;;;;29.30;23.05;;;;;;;;;;10301577;28;20486;-66
2022/11/05 17:33:41;;;;;;;33.42;25.65;;;;;;;;;;10291085;28;20053;-65
2022/11/05 17:38:40;;;;;;;29.27;22.42;;;;;;;;;;10277385;28;20091;-65
2022/11/05 17:43:39;;;;;;;34.42;24.17;;;;;;;;;;10283645;28;20475;-64
2022/11/05 17:48:38;;;;;;;30.05;25.23;;;;;;;;;;10285037;28;20036;-64
2022/11/05 17:53:36;;;;;;;29.95;25.15;;;;;;;;;;10294167;28;20049;-65
2022/11/05 17:58:35;;;;;;;38.88;26.55;;;;;;;;;;10289602;28;20088;-65
2022/11/05 18:03:34;;;;;;;38.95;30.65;;;;;;;;;;10290537;28;20053;-64
2022/11/05 18:08:33;;;;;;;38.28;27.42;;;;;;;;;;10274867;28;20076;-63
2022/11/05 18:13:31;;;;;;;40.42;28.35;;;;;;;;;;10281337;28;20043;-65
2022/11/05 18:18:30;;;;;;;37.30;26.00;;;;;;;;;;10287562;28;20722;-66
2022/11/05 18:23:29;;;;;;;33.95;25.50;;;;;;;;;;10288937;28;20084;-65
2022/11/05 18:28:30;;;;;;;38.70;27.30;;;;;;;;;;10282625;28;20080;-66
2022/11/05 18:33:29;;;;;;;39.08;26.65;;;;;;;;;;10283152;28;20073;-66
2022/11/05 18:38:27;;;;;;;36.70;28.08;;;;;;;;;;10314655;28;20487;-66
2022/11/05 18:43:27;;;;;;;30.58;24.70;;;;;;;;;;10313378;28;20076;-65
2022/11/05 18:48:25;;;;;;;37.33;29.98;;;;;;;;;;10273659;28;20068;-66
2022/11/05 18:53:23;;;;;;;37.92;33.65;;;;;;;;;;10272919;28;20057;-65
2022/11/05 18:58:21;;;;;;;47.40;38.13;;;;;;;;;;10281571;28;20064;-66
2022/11/05 19:03:21;;;;;;;44.65;35.30;;;;;;;;;;10288111;28;20084;-65
2022/11/05 19:08:19;;;;;;;47.00;37.33;;;;;;;;;;10314017;28;20037;-66
2022/11/05 19:13:17;;;;;;;38.20;30.92;;;;;;;;;;10281862;28;20182;-66
2022/11/05 19:18:16;;;;;;;38.15;30.08;;;;;;;;;;10285966;28;20045;-66
2022/11/05 19:23:15;;;;;;;42.17;33.72;;;;;;;;;;10282820;28;20495;-66
2022/11/05 19:28:14;;;;;;;38.15;28.30;;;;;;;;;;10287735;28;20083;-66
2022/11/05 19:33:12;;;;;;;42.63;29.92;;;;;;;;;;10288508;28;20418;-65
2022/11/05 19:38:10;;;;;;;44.47;30.98;;;;;;;;;;10287933;28;20504;-66
2022/11/05 19:43:10;;;;;;;36.97;30.15;;;;;;;;;;10288947;28;20094;-66
2022/11/05 19:48:09;;;;;;;37.03;30.58;;;;;;;;;;10288558;28;20079;-66
2022/11/05 19:53:14;;;;;;;36.83;29.83;;;;;;;;;;10288552;28;20128;-64
2022/11/05 19:58:14;;;;;;;41.45;30.95;;;;;;;;;;10288502;28;20067;-64
2022/11/05 20:03:12;;;;;;;37.75;32.22;;;;;;;;;;10287966;28;20088;-65
2022/11/05 20:08:11;;;;;;;41.95;33.92;;;;;;;;;;10287010;28;20072;-66
2022/11/05 20:13:09;;;;;;;41.97;33.20;;;;;;;;;;10285403;28;20556;-66
2022/11/05 20:18:17;;;;;;;41.55;35.03;;;;;;;;;;10294589;28;20079;-66
2022/11/05 20:23:15;;;;;;;42.00;33.20;;;;;;;;;;10286869;28;20075;-65
2022/11/05 20:28:13;;;;;;;40.47;32.65;;;;;;;;;;10289259;28;20044;-66
2022/11/05 20:33:12;;;;;;;40.95;32.90;;;;;;;;;;10286562;28;20501;-66
2022/11/05 20:38:11;;;;;;;43.45;32.13;;;;;;;;;;10286280;28;20477;-66
2022/11/05 20:43:10;;;;;;;44.30;32.53;;;;;;;;;;10285721;28;20076;-66
2022/11/05 20:48:08;;;;;;;45.00;31.60;;;;;;;;;;10286061;28;20083;-65
2022/11/05 20:53:07;;;;;;;46.97;32.15;;;;;;;;;;10281519;28;20060;-65
2022/11/05 20:58:07;;;;;;;43.47;34.75;;;;;;;;;;10286105;28;20079;-64
2022/11/05 21:03:05;;;;;;;37.20;33.30;;;;;;;;;;10281511;28;20068;-66
2022/11/05 21:08:03;;;;;;;40.88;30.45;;;;;;;;;;10282016;28;20072;-65
2022/11/05 21:13:01;;;;;;;38.03;29.10;;;;;;;;;;10285094;28;20314;-66
2022/11/05 21:18:01;;;;;;;33.25;29.38;;;;;;;;;;10292603;28;20660;-66
2022/11/05 21:22:59;;;;;;;39.63;29.85;;;;;;;;;;10287306;28;20068;-66
2022/11/05 21:27:58;;;;;;;33.65;28.02;;;;;;;;;;10277334;28;20075;-65
2022/11/05 21:32:56;;;;;;;36.45;28.60;;;;;;;;;;10275568;28;20073;-66
2022/11/05 21:37:56;;;;;;;32.53;29.02;;;;;;;;;;10279035;28;20477;-66
2022/11/05 21:42:54;;;;;;;34.08;27.00;;;;;;;;;;10283922;28;20079;-66
2022/11/05 21:47:52;;;;;;;29.33;25.92;;;;;;;;;;10282287;28;20072;-66
2022/11/05 22:03:27;;;;;;;29.40;24.73;;;;;;;;;;10295534;28;20090;-67
2022/11/05 22:08:26;;;;;;;31.15;24.48;;;;;;;;;;10277920;28;20435;-65
2022/11/05 22:13:25;;;;;;;26.70;23.80;;;;;;;;;;10289960;28;20098;-67
2022/11/05 22:18:24;;;;;;;31.20;22.42;;;;;;;;;;10280983;28;20071;-66
2022/11/05 22:23:22;;;;;;;29.98;22.90;;;;;;;;;;10280879;28;20091;-65
2022/11/05 22:28:20;;;;;;;31.08;23.58;;;;;;;;;;10279965;28;20100;-65
2022/11/05 22:33:20;;;;;;;33.30;22.40;;;;;;;;;;10279750;28;20079;-66
2022/11/05 22:38:18;;;;;;;30.50;21.58;;;;;;;;;;10281782;28;20086;-66
2022/11/05 22:43:16;;;;;;;27.83;21.75;;;;;;;;;;10282511;28;20083;-65
2022/11/05 22:48:14;;;;;;;25.60;21.67;;;;;;;;;;10295254;28;20040;-66
2022/11/05 22:53:14;;;;;;;25.60;20.30;;;;;;;;;;10278385;28;20048;-64
2022/11/05 22:58:12;;;;;;;28.27;21.35;;;;;;;;;;10281217;28;20048;-66
2022/11/05 23:03:11;;;;;;;24.75;20.50;;;;;;;;;;10281857;28;20083;-65
2022/11/05 23:13:27;;;;;;;25.77;20.50;;;;;;;;;;10281120;28;20079;-66
2022/11/05 23:28:57;;;;;;;26.33;20.98;;;;;;;;;;10274041;28;20421;-65
2022/11/05 23:33:56;;;;;;;29.98;21.85;;;;;;;;;;10281271;28;20032;-64
2022/11/05 23:38:54;;;;;;;27.23;21.13;;;;;;;;;;10281180;28;20040;-65
2022/11/05 23:49:11;;;;;;;29.50;20.35;;;;;;;;;;10263965;28;20076;-67
2022/11/05 23:54:09;;;;;;;27.75;20.92;;;;;;;;;;10289056;28;20491;-66
2022/11/05 23:59:07;;;;;;;26.55;20.52;;;;;;;;;;10288418;28;20076;-65
